<?xml version="1.0" encoding="UTF-8" standalone="no" ?>
<gpx xmlns="http://www.topografix.com/GPX/1/1" xmlns:xsi="http://www.w3.org/2001/XMLSchema-instance" xsi:schemaLocation="http://www.topografix.com/GPX/1/1 http://www.topografix.com/GPX/1/1/gpx.xsd" version="1.1" creator="VisuGPX - https://www.visugpx.com">
  <metadata>
    <name>Ch.Clos olive</name>
    <desc><![CDATA[Chemin plat,sans boue]]></desc>
  </metadata>
  <trk>
    <name><![CDATA[Trace 1771938470000]]></name>
    <trkseg>
      <trkpt lat="47.38697" lon="-2.47423">
        <ele>64</ele>
        <time>2026-02-24T13:07:50.000Z</time>
      </trkpt>
      <trkpt lat="47.38695" lon="-2.4743">
        <ele>64</ele>
        <time>2026-02-24T13:08:20.000Z</time>
      </trkpt>
      <trkpt lat="47.38684" lon="-2.47444">
        <ele>65</ele>
        <time>2026-02-24T13:08:50.000Z</time>
      </trkpt>
      <trkpt lat="47.38685" lon="-2.47447">
        <ele>66</ele>
        <time>2026-02-24T13:09:20.000Z</time>
      </trkpt>
      <trkpt lat="47.38674" lon="-2.47462">
        <ele>64</ele>
        <time>2026-02-24T13:09:50.000Z</time>
      </trkpt>
      <trkpt lat="47.38658" lon="-2.47496">
        <ele>65</ele>
        <time>2026-02-24T13:10:20.000Z</time>
      </trkpt>
      <trkpt lat="47.38639" lon="-2.47528">
        <ele>66</ele>
        <time>2026-02-24T13:10:50.000Z</time>
      </trkpt>
      <trkpt lat="47.38619" lon="-2.47566">
        <ele>67</ele>
        <time>2026-02-24T13:11:20.000Z</time>
      </trkpt>
      <trkpt lat="47.38599" lon="-2.47605">
        <ele>70</ele>
        <time>2026-02-24T13:11:50.000Z</time>
      </trkpt>
      <trkpt lat="47.38576" lon="-2.47645">
        <ele>70</ele>
        <time>2026-02-24T13:12:20.000Z</time>
      </trkpt>
      <trkpt lat="47.38557" lon="-2.47685">
        <ele>70</ele>
        <time>2026-02-24T13:12:50.000Z</time>
      </trkpt>
      <trkpt lat="47.38536" lon="-2.47726">
        <ele>72</ele>
        <time>2026-02-24T13:13:20.000Z</time>
      </trkpt>
      <trkpt lat="47.38516" lon="-2.47765">
        <ele>73</ele>
        <time>2026-02-24T13:13:50.000Z</time>
      </trkpt>
      <trkpt lat="47.38492" lon="-2.47804">
        <ele>74</ele>
        <time>2026-02-24T13:14:20.000Z</time>
      </trkpt>
      <trkpt lat="47.38474" lon="-2.47841">
        <ele>69</ele>
        <time>2026-02-24T13:14:50.000Z</time>
      </trkpt>
      <trkpt lat="47.38453" lon="-2.4788">
        <ele>69</ele>
        <time>2026-02-24T13:15:20.000Z</time>
      </trkpt>
      <trkpt lat="47.38432" lon="-2.4792">
        <ele>69</ele>
        <time>2026-02-24T13:15:50.000Z</time>
      </trkpt>
      <trkpt lat="47.38411" lon="-2.47959">
        <ele>70</ele>
        <time>2026-02-24T13:16:20.000Z</time>
      </trkpt>
      <trkpt lat="47.3839" lon="-2.47999">
        <ele>70</ele>
        <time>2026-02-24T13:16:50.000Z</time>
      </trkpt>
      <trkpt lat="47.38369" lon="-2.48038">
        <ele>72</ele>
        <time>2026-02-24T13:17:20.000Z</time>
      </trkpt>
      <trkpt lat="47.38349" lon="-2.48079">
        <ele>71</ele>
        <time>2026-02-24T13:17:50.000Z</time>
      </trkpt>
      <trkpt lat="47.38327" lon="-2.48118">
        <ele>72</ele>
        <time>2026-02-24T13:18:20.000Z</time>
      </trkpt>
      <trkpt lat="47.38306" lon="-2.48157">
        <ele>73</ele>
        <time>2026-02-24T13:18:50.000Z</time>
      </trkpt>
      <trkpt lat="47.38286" lon="-2.48196">
        <ele>72</ele>
        <time>2026-02-24T13:19:20.000Z</time>
      </trkpt>
      <trkpt lat="47.38264" lon="-2.48235">
        <ele>73</ele>
        <time>2026-02-24T13:19:50.000Z</time>
      </trkpt>
      <trkpt lat="47.38237" lon="-2.48272">
        <ele>74</ele>
        <time>2026-02-24T13:20:20.000Z</time>
      </trkpt>
      <trkpt lat="47.38211" lon="-2.4825">
        <ele>77</ele>
        <time>2026-02-24T13:20:50.000Z</time>
      </trkpt>
      <trkpt lat="47.3818" lon="-2.4826">
        <ele>78</ele>
        <time>2026-02-24T13:21:20.000Z</time>
      </trkpt>
      <trkpt lat="47.3815" lon="-2.48246">
        <ele>73</ele>
        <time>2026-02-24T13:21:50.000Z</time>
      </trkpt>
      <trkpt lat="47.3813" lon="-2.48205">
        <ele>70</ele>
        <time>2026-02-24T13:22:20.000Z</time>
      </trkpt>
      <trkpt lat="47.3811" lon="-2.48167">
        <ele>66</ele>
        <time>2026-02-24T13:22:50.000Z</time>
      </trkpt>
      <trkpt lat="47.38088" lon="-2.48127">
        <ele>66</ele>
        <time>2026-02-24T13:23:20.000Z</time>
      </trkpt>
      <trkpt lat="47.38061" lon="-2.48091">
        <ele>65</ele>
        <time>2026-02-24T13:23:50.000Z</time>
      </trkpt>
      <trkpt lat="47.38032" lon="-2.48065">
        <ele>65</ele>
        <time>2026-02-24T13:24:20.000Z</time>
      </trkpt>
      <trkpt lat="47.38001" lon="-2.48046">
        <ele>65</ele>
        <time>2026-02-24T13:24:50.000Z</time>
      </trkpt>
      <trkpt lat="47.37975" lon="-2.48016">
        <ele>66</ele>
        <time>2026-02-24T13:25:20.000Z</time>
      </trkpt>
      <trkpt lat="47.37951" lon="-2.47981">
        <ele>66</ele>
        <time>2026-02-24T13:25:50.000Z</time>
      </trkpt>
      <trkpt lat="47.37927" lon="-2.4796">
        <ele>74</ele>
        <time>2026-02-24T13:26:20.000Z</time>
      </trkpt>
      <trkpt lat="47.37905" lon="-2.47989">
        <ele>71</ele>
        <time>2026-02-24T13:26:50.000Z</time>
      </trkpt>
      <trkpt lat="47.37884" lon="-2.48022">
        <ele>71</ele>
        <time>2026-02-24T13:27:20.000Z</time>
      </trkpt>
      <trkpt lat="47.37864" lon="-2.48062">
        <ele>68</ele>
        <time>2026-02-24T13:27:50.000Z</time>
      </trkpt>
      <trkpt lat="47.37845" lon="-2.48096">
        <ele>68</ele>
        <time>2026-02-24T13:28:20.000Z</time>
      </trkpt>
      <trkpt lat="47.37825" lon="-2.48134">
        <ele>68</ele>
        <time>2026-02-24T13:28:50.000Z</time>
      </trkpt>
      <trkpt lat="47.37803" lon="-2.48173">
        <ele>69</ele>
        <time>2026-02-24T13:29:20.000Z</time>
      </trkpt>
      <trkpt lat="47.37779" lon="-2.48208">
        <ele>72</ele>
        <time>2026-02-24T13:29:50.000Z</time>
      </trkpt>
      <trkpt lat="47.3776" lon="-2.48246">
        <ele>69</ele>
        <time>2026-02-24T13:30:20.000Z</time>
      </trkpt>
      <trkpt lat="47.37739" lon="-2.48286">
        <ele>66</ele>
        <time>2026-02-24T13:30:50.000Z</time>
      </trkpt>
      <trkpt lat="47.37718" lon="-2.48326">
        <ele>66</ele>
        <time>2026-02-24T13:31:20.000Z</time>
      </trkpt>
      <trkpt lat="47.37697" lon="-2.48357">
        <ele>71</ele>
        <time>2026-02-24T13:31:50.000Z</time>
      </trkpt>
      <trkpt lat="47.37678" lon="-2.48388">
        <ele>71</ele>
        <time>2026-02-24T13:32:20.000Z</time>
      </trkpt>
      <trkpt lat="47.37657" lon="-2.48425">
        <ele>69</ele>
        <time>2026-02-24T13:32:50.000Z</time>
      </trkpt>
      <trkpt lat="47.37636" lon="-2.48463">
        <ele>68</ele>
        <time>2026-02-24T13:33:20.000Z</time>
      </trkpt>
      <trkpt lat="47.37607" lon="-2.48497">
        <ele>69</ele>
        <time>2026-02-24T13:33:50.000Z</time>
      </trkpt>
      <trkpt lat="47.37578" lon="-2.48522">
        <ele>69</ele>
        <time>2026-02-24T13:34:20.000Z</time>
      </trkpt>
      <trkpt lat="47.37549" lon="-2.4855">
        <ele>71</ele>
        <time>2026-02-24T13:34:50.000Z</time>
      </trkpt>
      <trkpt lat="47.37523" lon="-2.48575">
        <ele>71</ele>
        <time>2026-02-24T13:35:20.000Z</time>
      </trkpt>
      <trkpt lat="47.37492" lon="-2.48602">
        <ele>76</ele>
        <time>2026-02-24T13:35:50.000Z</time>
      </trkpt>
      <trkpt lat="47.37474" lon="-2.48617">
        <ele>75</ele>
        <time>2026-02-24T13:36:20.000Z</time>
      </trkpt>
      <trkpt lat="47.37449" lon="-2.48641">
        <ele>75</ele>
        <time>2026-02-24T13:36:50.000Z</time>
      </trkpt>
      <trkpt lat="47.37425" lon="-2.48666">
        <ele>75</ele>
        <time>2026-02-24T13:37:20.000Z</time>
      </trkpt>
      <trkpt lat="47.37395" lon="-2.48692">
        <ele>73</ele>
        <time>2026-02-24T13:37:50.000Z</time>
      </trkpt>
      <trkpt lat="47.37364" lon="-2.48716">
        <ele>70</ele>
        <time>2026-02-24T13:38:20.000Z</time>
      </trkpt>
      <trkpt lat="47.37332" lon="-2.48745">
        <ele>70</ele>
        <time>2026-02-24T13:38:50.000Z</time>
      </trkpt>
      <trkpt lat="47.37302" lon="-2.48771">
        <ele>73</ele>
        <time>2026-02-24T13:39:20.000Z</time>
      </trkpt>
      <trkpt lat="47.37274" lon="-2.48801">
        <ele>75</ele>
        <time>2026-02-24T13:39:50.000Z</time>
      </trkpt>
      <trkpt lat="47.37245" lon="-2.48827">
        <ele>75</ele>
        <time>2026-02-24T13:40:20.000Z</time>
      </trkpt>
      <trkpt lat="47.37217" lon="-2.48857">
        <ele>76</ele>
        <time>2026-02-24T13:40:50.000Z</time>
      </trkpt>
      <trkpt lat="47.37189" lon="-2.48883">
        <ele>76</ele>
        <time>2026-02-24T13:41:20.000Z</time>
      </trkpt>
      <trkpt lat="47.3716" lon="-2.4891">
        <ele>76</ele>
        <time>2026-02-24T13:41:50.000Z</time>
      </trkpt>
      <trkpt lat="47.3713" lon="-2.48936">
        <ele>77</ele>
        <time>2026-02-24T13:42:20.000Z</time>
      </trkpt>
      <trkpt lat="47.37102" lon="-2.48965">
        <ele>76</ele>
        <time>2026-02-24T13:42:50.000Z</time>
      </trkpt>
      <trkpt lat="47.37073" lon="-2.4899">
        <ele>76</ele>
        <time>2026-02-24T13:43:20.000Z</time>
      </trkpt>
      <trkpt lat="47.37045" lon="-2.49017">
        <ele>73</ele>
        <time>2026-02-24T13:43:50.000Z</time>
      </trkpt>
      <trkpt lat="47.37019" lon="-2.49039">
        <ele>72</ele>
        <time>2026-02-24T13:44:20.000Z</time>
      </trkpt>
      <trkpt lat="47.36992" lon="-2.49067">
        <ele>76</ele>
        <time>2026-02-24T13:44:50.000Z</time>
      </trkpt>
      <trkpt lat="47.36966" lon="-2.49096">
        <ele>77</ele>
        <time>2026-02-24T13:45:20.000Z</time>
      </trkpt>
      <trkpt lat="47.36944" lon="-2.49124">
        <ele>78</ele>
        <time>2026-02-24T13:45:50.000Z</time>
      </trkpt>
      <trkpt lat="47.3693" lon="-2.49141">
        <ele>75</ele>
        <time>2026-02-24T13:46:20.000Z</time>
      </trkpt>
      <trkpt lat="47.36902" lon="-2.49172">
        <ele>76</ele>
        <time>2026-02-24T13:46:50.000Z</time>
      </trkpt>
      <trkpt lat="47.36872" lon="-2.49202">
        <ele>76</ele>
        <time>2026-02-24T13:47:20.000Z</time>
      </trkpt>
      <trkpt lat="47.36847" lon="-2.49234">
        <ele>76</ele>
        <time>2026-02-24T13:47:50.000Z</time>
      </trkpt>
      <trkpt lat="47.36815" lon="-2.49261">
        <ele>67</ele>
        <time>2026-02-24T13:48:20.000Z</time>
      </trkpt>
      <trkpt lat="47.36798" lon="-2.49267">
        <ele>76</ele>
        <time>2026-02-24T13:48:50.000Z</time>
      </trkpt>
      <trkpt lat="47.36792" lon="-2.49261">
        <ele>78</ele>
        <time>2026-02-24T13:49:20.000Z</time>
      </trkpt>
      <trkpt lat="47.36789" lon="-2.49261">
        <ele>82</ele>
        <time>2026-02-24T13:49:50.000Z</time>
      </trkpt>
      <trkpt lat="47.36787" lon="-2.49262">
        <ele>83</ele>
        <time>2026-02-24T13:50:20.000Z</time>
      </trkpt>
      <trkpt lat="47.36788" lon="-2.49265">
        <ele>84</ele>
        <time>2026-02-24T13:50:50.000Z</time>
      </trkpt>
      <trkpt lat="47.36786" lon="-2.49253">
        <ele>87</ele>
        <time>2026-02-24T13:51:20.000Z</time>
      </trkpt>
      <trkpt lat="47.36769" lon="-2.49217">
        <ele>88</ele>
        <time>2026-02-24T13:51:50.000Z</time>
      </trkpt>
      <trkpt lat="47.36747" lon="-2.4918">
        <ele>91</ele>
        <time>2026-02-24T13:52:20.000Z</time>
      </trkpt>
      <trkpt lat="47.36721" lon="-2.49145">
        <ele>87</ele>
        <time>2026-02-24T13:52:50.000Z</time>
      </trkpt>
      <trkpt lat="47.36707" lon="-2.49119">
        <ele>83</ele>
        <time>2026-02-24T13:53:20.000Z</time>
      </trkpt>
      <trkpt lat="47.36695" lon="-2.4908">
        <ele>82</ele>
        <time>2026-02-24T13:53:50.000Z</time>
      </trkpt>
      <trkpt lat="47.36681" lon="-2.49037">
        <ele>86</ele>
        <time>2026-02-24T13:54:20.000Z</time>
      </trkpt>
      <trkpt lat="47.3669" lon="-2.48991">
        <ele>80</ele>
        <time>2026-02-24T13:54:50.000Z</time>
      </trkpt>
      <trkpt lat="47.36714" lon="-2.48962">
        <ele>79</ele>
        <time>2026-02-24T13:55:20.000Z</time>
      </trkpt>
      <trkpt lat="47.3673" lon="-2.4893">
        <ele>79</ele>
        <time>2026-02-24T13:55:50.000Z</time>
      </trkpt>
      <trkpt lat="47.36736" lon="-2.48882">
        <ele>78</ele>
        <time>2026-02-24T13:56:20.000Z</time>
      </trkpt>
      <trkpt lat="47.3674" lon="-2.48831">
        <ele>80</ele>
        <time>2026-02-24T13:56:50.000Z</time>
      </trkpt>
      <trkpt lat="47.36746" lon="-2.48783">
        <ele>79</ele>
        <time>2026-02-24T13:57:20.000Z</time>
      </trkpt>
      <trkpt lat="47.36754" lon="-2.48743">
        <ele>81</ele>
        <time>2026-02-24T13:57:50.000Z</time>
      </trkpt>
      <trkpt lat="47.36768" lon="-2.48698">
        <ele>82</ele>
        <time>2026-02-24T13:58:20.000Z</time>
      </trkpt>
      <trkpt lat="47.3678" lon="-2.4866">
        <ele>82</ele>
        <time>2026-02-24T13:58:50.000Z</time>
      </trkpt>
      <trkpt lat="47.36792" lon="-2.48611">
        <ele>80</ele>
        <time>2026-02-24T13:59:20.000Z</time>
      </trkpt>
      <trkpt lat="47.36797" lon="-2.48564">
        <ele>79</ele>
        <time>2026-02-24T13:59:50.000Z</time>
      </trkpt>
      <trkpt lat="47.36796" lon="-2.48516">
        <ele>81</ele>
        <time>2026-02-24T14:00:20.000Z</time>
      </trkpt>
      <trkpt lat="47.36798" lon="-2.48469">
        <ele>81</ele>
        <time>2026-02-24T14:00:50.000Z</time>
      </trkpt>
      <trkpt lat="47.36808" lon="-2.48422">
        <ele>83</ele>
        <time>2026-02-24T14:01:20.000Z</time>
      </trkpt>
      <trkpt lat="47.36816" lon="-2.48378">
        <ele>84</ele>
        <time>2026-02-24T14:01:50.000Z</time>
      </trkpt>
      <trkpt lat="47.36821" lon="-2.48333">
        <ele>88</ele>
        <time>2026-02-24T14:02:20.000Z</time>
      </trkpt>
      <trkpt lat="47.36825" lon="-2.48284">
        <ele>93</ele>
        <time>2026-02-24T14:02:50.000Z</time>
      </trkpt>
      <trkpt lat="47.36828" lon="-2.48241">
        <ele>95</ele>
        <time>2026-02-24T14:03:20.000Z</time>
      </trkpt>
      <trkpt lat="47.3685" lon="-2.48243">
        <ele>95</ele>
        <time>2026-02-24T14:03:50.000Z</time>
      </trkpt>
      <trkpt lat="47.36882" lon="-2.48248">
        <ele>103</ele>
        <time>2026-02-24T14:04:20.000Z</time>
      </trkpt>
      <trkpt lat="47.36916" lon="-2.4824">
        <ele>107</ele>
        <time>2026-02-24T14:04:50.000Z</time>
      </trkpt>
      <trkpt lat="47.36948" lon="-2.48227">
        <ele>104</ele>
        <time>2026-02-24T14:05:20.000Z</time>
      </trkpt>
      <trkpt lat="47.36981" lon="-2.48208">
        <ele>97</ele>
        <time>2026-02-24T14:05:50.000Z</time>
      </trkpt>
      <trkpt lat="47.37013" lon="-2.48188">
        <ele>96</ele>
        <time>2026-02-24T14:06:20.000Z</time>
      </trkpt>
      <trkpt lat="47.37045" lon="-2.48171">
        <ele>94</ele>
        <time>2026-02-24T14:06:50.000Z</time>
      </trkpt>
      <trkpt lat="47.37077" lon="-2.4815">
        <ele>93</ele>
        <time>2026-02-24T14:07:20.000Z</time>
      </trkpt>
      <trkpt lat="47.37106" lon="-2.48125">
        <ele>97</ele>
        <time>2026-02-24T14:07:50.000Z</time>
      </trkpt>
      <trkpt lat="47.37133" lon="-2.48098">
        <ele>92</ele>
        <time>2026-02-24T14:08:20.000Z</time>
      </trkpt>
      <trkpt lat="47.37161" lon="-2.48073">
        <ele>93</ele>
        <time>2026-02-24T14:08:50.000Z</time>
      </trkpt>
      <trkpt lat="47.37188" lon="-2.48045">
        <ele>96</ele>
        <time>2026-02-24T14:09:20.000Z</time>
      </trkpt>
      <trkpt lat="47.37217" lon="-2.48014">
        <ele>97</ele>
        <time>2026-02-24T14:09:50.000Z</time>
      </trkpt>
      <trkpt lat="47.37241" lon="-2.47989">
        <ele>96</ele>
        <time>2026-02-24T14:10:20.000Z</time>
      </trkpt>
      <trkpt lat="47.37265" lon="-2.47965">
        <ele>99</ele>
        <time>2026-02-24T14:10:50.000Z</time>
      </trkpt>
      <trkpt lat="47.37286" lon="-2.47928">
        <ele>99</ele>
        <time>2026-02-24T14:11:20.000Z</time>
      </trkpt>
      <trkpt lat="47.37312" lon="-2.47897">
        <ele>101</ele>
        <time>2026-02-24T14:11:50.000Z</time>
      </trkpt>
      <trkpt lat="47.37339" lon="-2.47864">
        <ele>99</ele>
        <time>2026-02-24T14:12:20.000Z</time>
      </trkpt>
      <trkpt lat="47.37361" lon="-2.47838">
        <ele>98</ele>
        <time>2026-02-24T14:12:50.000Z</time>
      </trkpt>
      <trkpt lat="47.37392" lon="-2.4781">
        <ele>101</ele>
        <time>2026-02-24T14:13:20.000Z</time>
      </trkpt>
      <trkpt lat="47.37419" lon="-2.47792">
        <ele>105</ele>
        <time>2026-02-24T14:13:50.000Z</time>
      </trkpt>
      <trkpt lat="47.37449" lon="-2.47762">
        <ele>104</ele>
        <time>2026-02-24T14:14:20.000Z</time>
      </trkpt>
      <trkpt lat="47.37481" lon="-2.47737">
        <ele>100</ele>
        <time>2026-02-24T14:14:50.000Z</time>
      </trkpt>
      <trkpt lat="47.37513" lon="-2.47713">
        <ele>100</ele>
        <time>2026-02-24T14:15:20.000Z</time>
      </trkpt>
      <trkpt lat="47.37545" lon="-2.47688">
        <ele>97</ele>
        <time>2026-02-24T14:15:50.000Z</time>
      </trkpt>
      <trkpt lat="47.37575" lon="-2.47668">
        <ele>97</ele>
        <time>2026-02-24T14:16:20.000Z</time>
      </trkpt>
      <trkpt lat="47.37607" lon="-2.47644">
        <ele>95</ele>
        <time>2026-02-24T14:16:50.000Z</time>
      </trkpt>
      <trkpt lat="47.37639" lon="-2.47626">
        <ele>98</ele>
        <time>2026-02-24T14:17:20.000Z</time>
      </trkpt>
      <trkpt lat="47.37672" lon="-2.47599">
        <ele>93</ele>
        <time>2026-02-24T14:17:50.000Z</time>
      </trkpt>
      <trkpt lat="47.37702" lon="-2.47576">
        <ele>94</ele>
        <time>2026-02-24T14:18:20.000Z</time>
      </trkpt>
      <trkpt lat="47.37729" lon="-2.47559">
        <ele>88</ele>
        <time>2026-02-24T14:18:50.000Z</time>
      </trkpt>
      <trkpt lat="47.37729" lon="-2.47554">
        <ele>85</ele>
        <time>2026-02-24T14:19:20.000Z</time>
      </trkpt>
      <trkpt lat="47.3773" lon="-2.47552">
        <ele>88</ele>
        <time>2026-02-24T14:19:50.000Z</time>
      </trkpt>
      <trkpt lat="47.37728" lon="-2.47553">
        <ele>89</ele>
        <time>2026-02-24T14:20:20.000Z</time>
      </trkpt>
      <trkpt lat="47.37728" lon="-2.47553">
        <ele>89</ele>
        <time>2026-02-24T14:20:50.000Z</time>
      </trkpt>
      <trkpt lat="47.37727" lon="-2.47552">
        <ele>85</ele>
        <time>2026-02-24T14:21:20.000Z</time>
      </trkpt>
      <trkpt lat="47.37728" lon="-2.47551">
        <ele>86</ele>
        <time>2026-02-24T14:21:50.000Z</time>
      </trkpt>
      <trkpt lat="47.37748" lon="-2.47575">
        <ele>87</ele>
        <time>2026-02-24T14:22:20.000Z</time>
      </trkpt>
      <trkpt lat="47.37767" lon="-2.47617">
        <ele>86</ele>
        <time>2026-02-24T14:22:50.000Z</time>
      </trkpt>
      <trkpt lat="47.37784" lon="-2.47658">
        <ele>82</ele>
        <time>2026-02-24T14:23:20.000Z</time>
      </trkpt>
      <trkpt lat="47.378" lon="-2.47703">
        <ele>80</ele>
        <time>2026-02-24T14:23:50.000Z</time>
      </trkpt>
      <trkpt lat="47.37817" lon="-2.47747">
        <ele>78</ele>
        <time>2026-02-24T14:24:20.000Z</time>
      </trkpt>
      <trkpt lat="47.37838" lon="-2.47789">
        <ele>77</ele>
        <time>2026-02-24T14:24:50.000Z</time>
      </trkpt>
      <trkpt lat="47.37858" lon="-2.47831">
        <ele>76</ele>
        <time>2026-02-24T14:25:20.000Z</time>
      </trkpt>
      <trkpt lat="47.37878" lon="-2.47871">
        <ele>78</ele>
        <time>2026-02-24T14:25:50.000Z</time>
      </trkpt>
      <trkpt lat="47.37903" lon="-2.47907">
        <ele>77</ele>
        <time>2026-02-24T14:26:20.000Z</time>
      </trkpt>
      <trkpt lat="47.37929" lon="-2.47943">
        <ele>73</ele>
        <time>2026-02-24T14:26:50.000Z</time>
      </trkpt>
      <trkpt lat="47.37953" lon="-2.4798">
        <ele>73</ele>
        <time>2026-02-24T14:27:20.000Z</time>
      </trkpt>
      <trkpt lat="47.37976" lon="-2.48012">
        <ele>72</ele>
        <time>2026-02-24T14:27:50.000Z</time>
      </trkpt>
      <trkpt lat="47.38001" lon="-2.48039">
        <ele>75</ele>
        <time>2026-02-24T14:28:20.000Z</time>
      </trkpt>
      <trkpt lat="47.3803" lon="-2.48061">
        <ele>72</ele>
        <time>2026-02-24T14:28:50.000Z</time>
      </trkpt>
      <trkpt lat="47.38061" lon="-2.48087">
        <ele>71</ele>
        <time>2026-02-24T14:29:20.000Z</time>
      </trkpt>
      <trkpt lat="47.38084" lon="-2.48121">
        <ele>74</ele>
        <time>2026-02-24T14:29:50.000Z</time>
      </trkpt>
      <trkpt lat="47.38107" lon="-2.48156">
        <ele>74</ele>
        <time>2026-02-24T14:30:20.000Z</time>
      </trkpt>
      <trkpt lat="47.38127" lon="-2.48193">
        <ele>75</ele>
        <time>2026-02-24T14:30:50.000Z</time>
      </trkpt>
      <trkpt lat="47.38141" lon="-2.4823">
        <ele>77</ele>
        <time>2026-02-24T14:31:20.000Z</time>
      </trkpt>
      <trkpt lat="47.38157" lon="-2.48268">
        <ele>78</ele>
        <time>2026-02-24T14:31:50.000Z</time>
      </trkpt>
      <trkpt lat="47.38184" lon="-2.48257">
        <ele>77</ele>
        <time>2026-02-24T14:32:20.000Z</time>
      </trkpt>
      <trkpt lat="47.38218" lon="-2.48256">
        <ele>81</ele>
        <time>2026-02-24T14:32:50.000Z</time>
      </trkpt>
      <trkpt lat="47.38228" lon="-2.48267">
        <ele>79</ele>
        <time>2026-02-24T14:33:20.000Z</time>
      </trkpt>
      <trkpt lat="47.38252" lon="-2.48256">
        <ele>78</ele>
        <time>2026-02-24T14:33:50.000Z</time>
      </trkpt>
      <trkpt lat="47.3827" lon="-2.48217">
        <ele>76</ele>
        <time>2026-02-24T14:34:20.000Z</time>
      </trkpt>
      <trkpt lat="47.3829" lon="-2.48181">
        <ele>77</ele>
        <time>2026-02-24T14:34:50.000Z</time>
      </trkpt>
      <trkpt lat="47.3831" lon="-2.48145">
        <ele>75</ele>
        <time>2026-02-24T14:35:20.000Z</time>
      </trkpt>
      <trkpt lat="47.38329" lon="-2.48109">
        <ele>76</ele>
        <time>2026-02-24T14:35:50.000Z</time>
      </trkpt>
      <trkpt lat="47.38349" lon="-2.48072">
        <ele>72</ele>
        <time>2026-02-24T14:36:20.000Z</time>
      </trkpt>
      <trkpt lat="47.38369" lon="-2.48033">
        <ele>72</ele>
        <time>2026-02-24T14:36:50.000Z</time>
      </trkpt>
      <trkpt lat="47.3839" lon="-2.47996">
        <ele>72</ele>
        <time>2026-02-24T14:37:20.000Z</time>
      </trkpt>
      <trkpt lat="47.38408" lon="-2.4796">
        <ele>72</ele>
        <time>2026-02-24T14:37:50.000Z</time>
      </trkpt>
      <trkpt lat="47.38429" lon="-2.4792">
        <ele>71</ele>
        <time>2026-02-24T14:38:20.000Z</time>
      </trkpt>
      <trkpt lat="47.38449" lon="-2.47882">
        <ele>72</ele>
        <time>2026-02-24T14:38:50.000Z</time>
      </trkpt>
      <trkpt lat="47.3847" lon="-2.47845">
        <ele>74</ele>
        <time>2026-02-24T14:39:20.000Z</time>
      </trkpt>
      <trkpt lat="47.3849" lon="-2.47808">
        <ele>73</ele>
        <time>2026-02-24T14:39:50.000Z</time>
      </trkpt>
      <trkpt lat="47.38511" lon="-2.47769">
        <ele>73</ele>
        <time>2026-02-24T14:40:20.000Z</time>
      </trkpt>
      <trkpt lat="47.38531" lon="-2.47733">
        <ele>75</ele>
        <time>2026-02-24T14:40:50.000Z</time>
      </trkpt>
      <trkpt lat="47.38549" lon="-2.47693">
        <ele>75</ele>
        <time>2026-02-24T14:41:20.000Z</time>
      </trkpt>
      <trkpt lat="47.38572" lon="-2.47656">
        <ele>71</ele>
        <time>2026-02-24T14:41:50.000Z</time>
      </trkpt>
      <trkpt lat="47.38593" lon="-2.47618">
        <ele>69</ele>
        <time>2026-02-24T14:42:20.000Z</time>
      </trkpt>
      <trkpt lat="47.38613" lon="-2.47579">
        <ele>68</ele>
        <time>2026-02-24T14:42:50.000Z</time>
      </trkpt>
      <trkpt lat="47.38633" lon="-2.47542">
        <ele>66</ele>
        <time>2026-02-24T14:43:20.000Z</time>
      </trkpt>
      <trkpt lat="47.38653" lon="-2.47506">
        <ele>67</ele>
        <time>2026-02-24T14:43:50.000Z</time>
      </trkpt>
      <trkpt lat="47.3867" lon="-2.4747">
        <ele>65</ele>
        <time>2026-02-24T14:44:20.000Z</time>
      </trkpt>
      <trkpt lat="47.38682" lon="-2.4745">
        <ele>65</ele>
        <time>2026-02-24T14:44:50.000Z</time>
      </trkpt>
    </trkseg>
  </trk>
</gpx>